createdAt,value
2022-11-01T00:00:25.464Z,86.48
2022-11-01T00:03:17.484Z,86.56
2022-11-01T00:05:49.777Z,86.46
2022-11-01T00:08:21.772Z,86.64
2022-11-01T00:10:53.812Z,86.84
2022-11-01T00:13:25.952Z,87.06
2022-11-01T00:15:58.081Z,86.94
2022-11-01T00:18:28.698Z,87.34
2022-11-01T00:21:01.187Z,87.72
2022-11-01T00:23:33.373Z,87.69
2022-11-01T00:26:04.434Z,87.33
2022-11-01T00:28:37.283Z,87.35
2022-11-01T00:31:11.883Z,87.05
2022-11-01T00:33:45.303Z,87.15
2022-11-01T00:36:17.744Z,87.35
2022-11-01T00:38:53.418Z,87.60
2022-11-01T00:41:25.770Z,87.93
2022-11-01T00:43:56.172Z,88.05
2022-11-01T00:46:28.399Z,88.30
2022-11-01T00:49:00.660Z,88.95
2022-11-01T00:51:32.696Z,89.20
2022-11-01T00:54:03.360Z,89.22
2022-11-01T00:56:35.444Z,89.45
2022-11-01T00:59:07.716Z,89.74
2022-11-01T01:01:38.240Z,89.89
2022-11-01T01:04:10.728Z,90.23
2022-11-01T01:06:42.847Z,90.59
2022-11-01T01:09:13.493Z,90.79
2022-11-01T01:11:45.681Z,90.83
2022-11-01T01:14:17.998Z,90.95
2022-11-01T01:16:50.169Z,91.06
2022-11-01T01:19:22.405Z,91.08
2022-11-01T01:21:52.904Z,90.94
2022-11-01T01:24:25.464Z,90.86
2022-11-01T01:26:57.708Z,90.90
2022-11-01T01:29:30.032Z,90.83
2022-11-01T01:32:02.025Z,90.92
2022-11-01T01:34:35.580Z,90.85
2022-11-01T01:37:07.696Z,91.05
2022-11-01T01:39:38.567Z,91.16
2022-11-01T01:42:20.605Z,91.40
2022-11-01T01:45:21.257Z,91.57
2022-11-01T01:47:55.397Z,91.62
2022-11-01T01:50:32.812Z,91.51
2022-11-01T01:53:09.783Z,91.50
2022-11-01T01:55:47.205Z,91.37
2022-11-01T01:58:23.288Z,91.17
2022-11-01T02:00:55.770Z,91.26
2022-11-01T02:03:31.812Z,91.18
2022-11-01T02:06:11.407Z,91.26
2022-11-01T02:08:46.638Z,91.07
2022-11-01T02:11:20.642Z,91.11
2022-11-01T02:13:53.244Z,91.05
2022-11-01T02:16:40.046Z,91.07
2022-11-01T02:19:53.625Z,91.32
2022-11-01T02:22:35.557Z,91.51
2022-11-01T02:25:35.442Z,91.59
2022-11-01T02:28:34.808Z,91.71
2022-11-01T02:31:23.076Z,91.89
2022-11-01T02:33:59.414Z,92.39
2022-11-01T02:36:39.078Z,92.49
2022-11-01T02:39:18.753Z,92.69
2022-11-01T02:41:58.372Z,92.74
2022-11-01T02:44:34.851Z,92.74
2022-11-01T02:47:08.374Z,92.69
2022-11-01T02:49:42.734Z,92.74
2022-11-01T02:52:17.152Z,93.01
2022-11-01T02:54:57.224Z,93.13
2022-11-01T02:57:37.431Z,93.24
2022-11-01T03:00:24.284Z,93.45
2022-11-01T03:03:00.917Z,93.65
2022-11-01T03:05:45.059Z,93.79
2022-11-01T03:08:20.076Z,93.80
2022-11-01T03:11:02.858Z,93.95
2022-11-01T03:13:49.920Z,94.04
2022-11-01T03:16:30.535Z,94.06
2022-11-01T03:19:24.930Z,94.09
2022-11-01T03:22:06.685Z,94.10
2022-11-01T03:24:44.118Z,94.00
2022-11-01T03:27:25.226Z,94.10
2022-11-01T03:30:05.397Z,94.10
2022-11-01T03:32:41.868Z,93.98
2022-11-01T03:35:19.199Z,94.22
2022-11-01T03:37:54.053Z,94.35
2022-11-01T03:40:28.864Z,94.57
2022-11-01T03:43:11.599Z,94.73
2022-11-01T03:45:44.388Z,94.76
2022-11-01T03:48:16.588Z,94.87
2022-11-01T03:50:53.227Z,94.87
2022-11-01T03:53:25.559Z,95.01
2022-11-01T03:55:57.993Z,95.01
2022-11-01T03:58:41.971Z,95.02
2022-11-01T04:01:16.452Z,95.21
2022-11-01T04:03:48.820Z,95.41
2022-11-01T04:09:07.913Z,95.38
2022-11-01T04:11:39.999Z,95.32
2022-11-01T04:14:32.002Z,95.42
2022-11-01T04:17:21.866Z,95.55
2022-11-01T04:20:11.768Z,95.52
2022-11-01T04:22:43.819Z,95.44
2022-11-01T04:25:14.483Z,95.47
2022-11-01T04:27:46.613Z,95.52
2022-11-01T04:30:20.379Z,95.57
2022-11-01T04:32:52.684Z,95.55
2022-11-01T04:35:25.375Z,95.49
2022-11-01T04:38:00.791Z,95.55
2022-11-01T04:40:33.833Z,95.39
2022-11-01T04:43:06.176Z,95.38
2022-11-01T04:45:38.557Z,95.38
2022-11-01T04:48:13.959Z,95.23
2022-11-01T04:50:47.358Z,95.21
2022-11-01T04:53:19.463Z,95.23
2022-11-01T04:55:51.654Z,95.30
2022-11-01T04:58:23.782Z,95.33
2022-11-01T05:00:56.225Z,95.16
2022-11-01T05:03:28.375Z,95.13
2022-11-01T05:05:59.900Z,95.18
2022-11-01T05:08:33.132Z,95.21
2022-11-01T05:11:05.479Z,95.19
2022-11-01T05:13:37.557Z,95.18
2022-11-01T05:16:25.993Z,95.15
2022-11-01T05:18:58.142Z,95.24
2022-11-01T05:21:30.319Z,95.22
2022-11-01T05:24:02.520Z,95.06
2022-11-01T05:26:34.719Z,94.97
2022-11-01T05:29:08.992Z,95.03
2022-11-01T05:31:45.607Z,95.22
2022-11-01T05:36:54.928Z,95.14
2022-11-01T05:39:27.213Z,95.35
2022-11-01T05:42:02.654Z,95.36
2022-11-01T05:44:35.384Z,95.47
2022-11-01T05:47:08.006Z,95.50
2022-11-01T05:49:40.233Z,95.62
2022-11-01T05:52:12.567Z,95.64
2022-11-01T05:54:43.029Z,95.62
2022-11-01T05:57:15.168Z,95.64
2022-11-01T05:59:45.666Z,95.58
2022-11-01T06:02:17.779Z,95.47
2022-11-01T06:04:48.329Z,95.19
2022-11-01T06:07:20.778Z,95.06
2022-11-01T06:09:52.989Z,94.98
2022-11-01T06:12:27.210Z,94.93
2022-11-01T06:14:59.271Z,94.80
2022-11-01T06:17:29.954Z,94.68
2022-11-01T06:20:02.170Z,94.60
2022-11-01T06:22:35.673Z,94.62
2022-11-01T06:25:09.352Z,94.46
2022-11-01T06:27:41.419Z,94.44
2022-11-01T06:30:12.930Z,94.39
2022-11-01T06:32:45.354Z,94.46
2022-11-01T06:35:15.893Z,94.30
2022-11-01T06:37:48.084Z,94.35
2022-11-01T06:40:20.423Z,94.82
2022-11-01T06:42:52.714Z,94.46
2022-11-01T06:45:25.065Z,93.46
2022-11-01T06:47:57.595Z,92.27
2022-11-01T06:50:29.727Z,91.45
2022-11-01T06:53:00.602Z,90.97
2022-11-01T06:55:32.757Z,90.81
2022-11-01T06:58:05.453Z,90.96
2022-11-01T07:00:37.915Z,90.76
2022-11-01T07:03:12.636Z,90.81
2022-11-01T07:05:44.990Z,90.15
2022-11-01T07:08:17.161Z,89.50
2022-11-01T07:10:52.859Z,89.29
2022-11-01T07:13:24.920Z,89.46
2022-11-01T07:15:57.130Z,89.28
2022-11-01T07:18:30.210Z,88.06
2022-11-01T07:21:04.859Z,87.53
2022-11-01T07:23:37.523Z,87.20
2022-11-01T07:26:10.190Z,85.97
2022-11-01T07:28:42.386Z,84.30
2022-11-01T07:31:14.561Z,83.88
2022-11-01T07:33:46.774Z,83.94
2022-11-01T07:36:18.978Z,83.12
2022-11-01T07:38:51.163Z,81.68
2022-11-01T07:41:23.513Z,80.82
2022-11-01T07:43:55.826Z,79.54
2022-11-01T07:46:27.978Z,78.47
2022-11-01T07:49:00.945Z,77.88
2022-11-01T07:51:33.079Z,77.02
2022-11-01T07:54:05.315Z,76.65
2022-11-01T07:56:37.763Z,75.35
2022-11-01T07:59:10.927Z,75.19
2022-11-01T08:01:43.249Z,74.23
2022-11-01T08:04:16.879Z,73.03
2022-11-01T08:06:52.071Z,71.46
2022-11-01T08:09:24.629Z,70.06
2022-11-01T08:11:56.860Z,69.73
2022-11-01T08:14:29.087Z,69.73
2022-11-01T08:17:01.913Z,69.34
2022-11-01T08:19:34.141Z,69.61
2022-11-01T08:22:06.434Z,69.48
2022-11-01T08:24:38.583Z,68.85
2022-11-01T08:27:10.682Z,66.89
2022-11-01T08:29:43.128Z,66.49
2022-11-01T08:32:15.184Z,65.78
2022-11-01T08:34:47.201Z,65.47
2022-11-01T08:37:19.520Z,64.70
2022-11-01T08:39:51.526Z,64.03
2022-11-01T08:42:23.748Z,63.44
2022-11-01T08:44:55.910Z,63.58
2022-11-01T08:47:27.991Z,62.69
2022-11-01T08:50:00.295Z,60.79
2022-11-01T08:52:32.770Z,60.94
2022-11-01T08:55:05.652Z,59.16
2022-11-01T08:57:37.858Z,59.86
2022-11-01T09:00:11.694Z,60.25
2022-11-01T09:02:48.297Z,59.91
2022-11-01T09:05:20.885Z,59.32
2022-11-01T09:07:59.643Z,59.57
2022-11-01T09:10:32.352Z,58.80
2022-11-01T09:13:04.848Z,58.65
2022-11-01T09:15:37.336Z,57.34
2022-11-01T09:18:09.911Z,57.36
2022-11-01T09:20:42.180Z,57.63
2022-11-01T09:23:15.087Z,57.56
2022-11-01T09:25:47.110Z,56.60
2022-11-01T09:28:21.366Z,55.62
2022-11-01T09:31:01.444Z,55.72
2022-11-01T09:33:34.161Z,55.90
2022-11-01T09:36:07.235Z,55.78
2022-11-01T09:38:39.875Z,55.61
2022-11-01T09:41:22.248Z,55.37
2022-11-01T09:43:56.987Z,55.84
2022-11-01T09:46:33.287Z,55.77
2022-11-01T09:49:06.964Z,54.99
2022-11-01T09:51:40.064Z,53.50
2022-11-01T09:54:13.980Z,53.71
2022-11-01T09:56:52.827Z,53.83
2022-11-01T09:59:31.855Z,53.99
2022-11-01T10:02:26.539Z,53.63
2022-11-01T10:05:18.677Z,54.10
2022-11-01T10:08:02.291Z,54.66
2022-11-01T10:10:41.262Z,54.94
2022-11-01T10:13:32.581Z,54.99
2022-11-01T10:16:11.411Z,55.30
2022-11-01T10:18:52.866Z,55.73
2022-11-01T10:21:29.779Z,55.33
2022-11-01T10:24:08.167Z,55.84
2022-11-01T10:26:44.455Z,56.51
2022-11-01T10:29:22.889Z,55.97
2022-11-01T10:31:57.580Z,56.94
2022-11-01T10:34:36.191Z,57.63
2022-11-01T10:37:22.628Z,57.14
2022-11-01T10:40:03.112Z,57.38
2022-11-01T10:42:39.008Z,58.31
2022-11-01T10:45:17.509Z,58.62
2022-11-01T10:47:52.434Z,59.01
2022-11-01T10:50:27.769Z,59.27
2022-11-01T10:53:03.965Z,59.84
2022-11-01T10:55:43.329Z,59.69
2022-11-01T10:58:28.276Z,59.94
2022-11-01T11:01:01.210Z,60.37
2022-11-01T11:03:34.000Z,60.26
2022-11-01T11:06:11.977Z,60.23
2022-11-01T11:08:51.344Z,60.24
2022-11-01T11:11:32.602Z,59.57
2022-11-01T11:14:09.155Z,59.43
2022-11-01T11:16:46.442Z,59.31
2022-11-01T11:19:24.594Z,59.85
2022-11-01T11:21:57.494Z,60.19
2022-11-01T11:24:38.788Z,60.21
2022-11-01T11:27:22.589Z,60.57
2022-11-01T11:29:57.313Z,60.69
2022-11-01T11:32:32.402Z,60.68
2022-11-01T11:35:09.786Z,60.94
2022-11-01T11:37:51.341Z,60.63
2022-11-01T11:40:27.409Z,60.35
2022-11-01T11:43:22.844Z,60.66
2022-11-01T11:46:08.951Z,60.56
2022-11-01T11:48:49.621Z,60.74
2022-11-01T11:51:24.465Z,60.73
2022-11-01T11:54:26.188Z,60.94
2022-11-01T11:57:12.184Z,61.13
2022-11-01T12:02:27.503Z,61.02
2022-11-01T12:05:03.782Z,61.23
2022-11-01T12:07:49.093Z,61.22
2022-11-01T12:10:34.241Z,61.52
2022-11-01T12:13:22.734Z,61.30
2022-11-01T12:16:09.515Z,61.21
2022-11-01T12:18:52.234Z,61.51
2022-11-01T12:21:27.993Z,61.40
2022-11-01T12:24:18.598Z,61.28
2022-11-01T12:26:51.834Z,61.99
2022-11-01T12:29:32.959Z,61.93
2022-11-01T12:32:11.424Z,61.98
2022-11-01T12:34:46.333Z,61.89
2022-11-01T12:37:22.209Z,62.39
2022-11-01T12:40:00.378Z,62.13
2022-11-01T12:42:40.124Z,62.53
2022-11-01T12:45:20.870Z,63.00
2022-11-01T12:48:17.638Z,62.49
2022-11-01T12:51:15.093Z,62.35
2022-11-01T12:53:54.687Z,62.53
2022-11-01T12:56:27.011Z,62.57
2022-11-01T12:58:59.935Z,62.26
2022-11-01T13:01:39.258Z,62.63
2022-11-01T13:04:21.620Z,62.68
2022-11-01T13:07:13.653Z,62.56
2022-11-01T13:09:56.632Z,62.61
2022-11-01T13:12:42.364Z,62.83
2022-11-01T13:15:25.575Z,63.16
2022-11-01T13:18:10.817Z,63.31
2022-11-01T13:20:52.102Z,62.76
2022-11-01T13:23:32.593Z,63.06
2022-11-01T13:26:10.875Z,63.37
2022-11-01T13:29:03.829Z,63.26
2022-11-01T13:31:45.194Z,63.25
2022-11-01T13:34:37.059Z,63.13
2022-11-01T13:37:19.293Z,63.37
2022-11-01T13:40:02.071Z,62.91
2022-11-01T13:42:39.696Z,63.08
2022-11-01T13:45:35.702Z,63.11
2022-11-01T13:48:17.474Z,63.20
2022-11-01T13:51:12.752Z,63.15
2022-11-01T13:53:50.273Z,63.10
2022-11-01T13:56:27.793Z,63.29
2022-11-01T13:58:59.992Z,63.41
2022-11-01T14:01:36.469Z,63.94
2022-11-01T14:04:43.062Z,64.22
2022-11-01T14:07:19.033Z,64.40
2022-11-01T14:09:53.624Z,64.48
2022-11-01T14:12:43.429Z,64.67
2022-11-01T14:15:26.941Z,64.79
2022-11-01T14:18:08.773Z,64.92
2022-11-01T14:20:52.652Z,65.07
2022-11-01T14:24:01.829Z,65.30
2022-11-01T14:26:51.265Z,65.48
2022-11-01T14:29:23.517Z,65.75
2022-11-01T14:31:57.571Z,65.70
2022-11-01T14:34:39.619Z,65.80
2022-11-01T14:37:28.137Z,66.09
2022-11-01T14:40:16.285Z,66.07
2022-11-01T14:42:53.382Z,66.48
2022-11-01T14:45:33.162Z,66.59
2022-11-01T14:48:13.273Z,66.70
2022-11-01T14:50:53.504Z,66.90
2022-11-01T14:53:32.721Z,67.06
2022-11-01T14:56:14.426Z,67.38
2022-11-01T14:58:47.232Z,67.45
2022-11-01T15:01:23.432Z,67.59
2022-11-01T15:04:01.122Z,67.91
2022-11-01T15:06:33.824Z,67.98
2022-11-01T15:09:06.057Z,68.20
2022-11-01T15:11:38.521Z,68.34
2022-11-01T15:14:10.944Z,68.49
2022-11-01T15:16:45.037Z,68.58
2022-11-01T15:19:20.291Z,68.57
2022-11-01T15:21:52.391Z,68.77
2022-11-01T15:24:26.955Z,68.92
2022-11-01T15:27:04.777Z,69.10
2022-11-01T15:29:38.778Z,69.31
2022-11-01T15:32:25.070Z,69.74
2022-11-01T15:34:58.807Z,70.07
2022-11-01T15:37:33.356Z,70.25
2022-11-01T15:40:27.436Z,70.52
2022-11-01T15:43:01.449Z,70.88
2022-11-01T15:45:36.996Z,71.26
2022-11-01T15:48:33.751Z,71.40
2022-11-01T15:51:09.262Z,71.63
2022-11-01T15:53:43.276Z,71.83
2022-11-01T15:56:19.962Z,72.07
2022-11-01T15:58:55.119Z,72.28
2022-11-01T16:01:28.315Z,72.52
2022-11-01T16:04:05.705Z,72.53
2022-11-01T16:06:42.772Z,72.68
2022-11-01T16:09:24.598Z,73.06
2022-11-01T16:12:01.281Z,73.46
2022-11-01T16:14:37.708Z,73.63
2022-11-01T16:17:24.708Z,73.75
2022-11-01T16:19:57.456Z,73.92
2022-11-01T16:22:38.106Z,74.19
2022-11-01T16:25:24.049Z,74.12
2022-11-01T16:28:00.691Z,74.41
2022-11-01T16:30:50.029Z,74.50
2022-11-01T16:33:43.928Z,74.69
2022-11-01T16:36:45.637Z,74.67
2022-11-01T16:39:32.320Z,75.01
2022-11-01T16:42:05.039Z,74.96
2022-11-01T16:44:38.586Z,75.18
2022-11-01T16:47:13.790Z,75.15
2022-11-01T16:49:50.909Z,75.52
2022-11-01T16:52:24.329Z,75.45
2022-11-01T16:54:56.642Z,75.79
2022-11-01T16:57:30.303Z,75.79
2022-11-01T17:00:04.708Z,75.89
2022-11-01T17:02:39.693Z,76.18
2022-11-01T17:05:23.748Z,76.16
2022-11-01T17:07:57.011Z,75.89
2022-11-01T17:10:31.151Z,75.88
2022-11-01T17:13:05.467Z,75.91
2022-11-01T17:15:42.211Z,76.03
2022-11-01T17:18:22.021Z,76.15
2022-11-01T17:20:56.054Z,76.54
2022-11-01T17:23:29.219Z,76.75
2022-11-01T17:26:03.386Z,77.03
2022-11-01T17:28:35.536Z,77.39
2022-11-01T17:31:07.989Z,77.61
2022-11-01T17:33:40.248Z,77.63
2022-11-01T17:36:16.189Z,77.68
2022-11-01T17:38:50.456Z,77.89
2022-11-01T17:41:23.926Z,77.86
2022-11-01T17:43:57.222Z,77.77
2022-11-01T17:46:29.780Z,78.04
2022-11-01T17:49:01.951Z,78.10
2022-11-01T17:51:34.258Z,78.24
2022-11-01T17:54:06.852Z,78.38
2022-11-01T17:56:39.592Z,78.47
2022-11-01T17:59:11.689Z,78.60
2022-11-01T18:01:45.170Z,78.70
2022-11-01T18:04:17.573Z,78.82
2022-11-01T18:06:50.637Z,78.79
2022-11-01T18:09:25.287Z,78.69
2022-11-01T18:12:06.133Z,78.97
2022-11-01T18:17:45.318Z,79.09
2022-11-01T18:20:39.620Z,79.27
2022-11-01T18:23:16.092Z,79.33
2022-11-01T18:25:50.914Z,79.56
2022-11-01T18:28:26.675Z,79.69
2022-11-01T18:31:00.556Z,79.69
2022-11-01T18:33:40.701Z,79.82
2022-11-01T18:36:20.105Z,79.82
2022-11-01T18:39:02.611Z,79.91
2022-11-01T18:41:34.813Z,80.02
2022-11-01T18:44:12.038Z,80.13
2022-11-01T18:46:54.645Z,80.01
2022-11-01T18:49:28.962Z,80.15
2022-11-01T18:52:01.949Z,80.37
2022-11-01T18:54:35.542Z,80.47
2022-11-01T18:57:16.251Z,80.44
2022-11-01T18:59:50.415Z,80.65
2022-11-01T19:02:25.579Z,80.78
2022-11-01T19:05:12.558Z,80.90
2022-11-01T19:08:09.729Z,80.85
2022-11-01T19:10:38.339Z,80.99
2022-11-01T19:13:14.347Z,81.04
2022-11-01T19:15:51.728Z,81.15
2022-11-01T19:18:26.886Z,81.09
2022-11-01T19:21:01.676Z,81.04
2022-11-01T19:23:38.279Z,81.21
2022-11-01T19:26:21.364Z,81.38
2022-11-01T19:28:54.708Z,81.42
2022-11-01T19:31:30.878Z,81.38
2022-11-01T19:34:06.646Z,81.29
2022-11-01T19:36:41.588Z,81.33
2022-11-01T19:39:24.162Z,81.35
2022-11-01T19:42:00.866Z,81.38
2022-11-01T19:44:33.153Z,81.50
2022-11-01T19:47:20.865Z,81.37
2022-11-01T19:49:55.544Z,81.59
2022-11-01T19:52:31.125Z,81.73
2022-11-01T19:55:03.319Z,81.49
2022-11-01T19:57:40.955Z,81.65
2022-11-01T20:00:22.646Z,81.59
2022-11-01T20:03:00.253Z,81.65
2022-11-01T20:05:35.927Z,81.92
2022-11-01T20:08:21.500Z,81.87
2022-11-01T20:10:54.060Z,81.84
2022-11-01T20:13:26.806Z,81.78
2022-11-01T20:15:59.459Z,81.88
2022-11-01T20:18:31.647Z,81.95
2022-11-01T20:21:06.951Z,82.01
2022-11-01T20:23:40.183Z,82.09
2022-11-01T20:26:13.641Z,81.93
2022-11-01T20:28:45.762Z,82.17
2022-11-01T20:31:18.718Z,82.47
2022-11-01T20:33:53.213Z,82.46
2022-11-01T20:36:25.338Z,82.62
2022-11-01T20:38:57.528Z,82.66
2022-11-01T20:41:29.745Z,82.71
2022-11-01T20:44:02.133Z,82.82
2022-11-01T20:46:34.310Z,82.73
2022-11-01T20:49:06.412Z,82.71
2022-11-01T20:51:38.478Z,82.93
2022-11-01T20:54:11.800Z,83.11
2022-11-01T20:56:47.451Z,83.15
2022-11-01T20:59:21.391Z,83.19
2022-11-01T21:01:55.013Z,83.18
2022-11-01T21:04:28.039Z,83.09
2022-11-01T21:07:00.057Z,83.13
2022-11-01T21:09:39.870Z,83.03
2022-11-01T21:12:32.271Z,83.09
2022-11-01T21:15:27.688Z,83.29
2022-11-01T21:18:06.561Z,83.39
2022-11-01T21:20:40.602Z,83.24
2022-11-01T21:23:24.892Z,83.45
2022-11-01T21:25:59.205Z,83.55
2022-11-01T21:28:34.005Z,83.47
2022-11-01T21:31:24.580Z,83.65
2022-11-01T21:33:58.772Z,83.61
2022-11-01T21:36:36.117Z,83.66
2022-11-01T21:39:15.374Z,83.71
2022-11-01T21:41:49.377Z,83.68
2022-11-01T21:44:29.146Z,83.81
2022-11-01T21:47:16.443Z,84.01
2022-11-01T21:49:48.794Z,83.83
2022-11-01T21:52:21.225Z,84.06
2022-11-01T21:54:53.858Z,83.90
2022-11-01T21:57:26.302Z,83.86
2022-11-01T21:59:58.290Z,83.87
2022-11-01T22:02:31.031Z,83.97
2022-11-01T22:05:04.488Z,83.99
2022-11-01T22:07:37.586Z,83.94
2022-11-01T22:10:11.272Z,83.94
2022-11-01T22:12:43.549Z,83.87
2022-11-01T22:15:16.083Z,83.79
2022-11-01T22:17:48.219Z,83.95
2022-11-01T22:20:20.454Z,83.92
2022-11-01T22:22:52.812Z,83.95
2022-11-01T22:25:25.600Z,83.90
2022-11-01T22:27:57.981Z,83.77
2022-11-01T22:30:30.110Z,83.76
2022-11-01T22:33:02.615Z,83.82
2022-11-01T22:35:34.937Z,83.96
2022-11-01T22:38:17.675Z,83.94
2022-11-01T22:43:36.426Z,84.43
2022-11-01T22:46:22.201Z,84.30
2022-11-01T22:48:58.738Z,84.45
2022-11-01T22:51:38.796Z,84.39
2022-11-01T22:54:25.782Z,84.55
2022-11-01T22:57:02.450Z,84.59
2022-11-01T22:59:36.884Z,84.51
2022-11-01T23:02:27.060Z,84.29
2022-11-01T23:05:20.316Z,84.39
2022-11-01T23:07:53.611Z,84.69
2022-11-01T23:10:28.225Z,84.90
2022-11-01T23:13:25.324Z,85.03
2022-11-01T23:15:59.755Z,84.97
2022-11-01T23:18:34.085Z,84.73
2022-11-01T23:21:09.282Z,84.33
2022-11-01T23:23:45.102Z,84.51
2022-11-01T23:26:19.242Z,84.71
2022-11-01T23:28:53.331Z,84.93
2022-11-01T23:31:28.577Z,84.98
2022-11-01T23:34:00.871Z,85.10
2022-11-01T23:36:35.276Z,85.29
2022-11-01T23:39:11.902Z,85.33
2022-11-01T23:41:46.573Z,85.34
2022-11-01T23:44:26.346Z,85.43
2022-11-01T23:47:03.848Z,85.42
2022-11-01T23:49:37.023Z,85.42
2022-11-01T23:52:26.516Z,85.52
2022-11-01T23:54:59.033Z,85.37
2022-11-01T23:57:31.454Z,85.36
